Time;durP1;ratioP1;P1;durP2;ratioP2;P2;SDS_P1;SDS_P2;PMS_P1;PMS_P2;Temp;Humidity;BMP_temperature;BMP_pressure;BME280_temperature;BME280_humidity;BME280_pressure;Samples;Min_cycle;Max_cycle;Signal;HPM_P1;HPM_P2
2024/01/05 00:00:30;;;;;;;34.72;28.85;;;;;;;;;;5096511;28;20019;-68
2024/01/05 00:02:59;;;;;;;32.15;25.73;;;;;;;;;;5095832;28;20012;-68
2024/01/05 00:05:24;;;;;;;26.27;22.05;;;;;;;;;;5098302;28;20028;-68
2024/01/05 00:07:50;;;;;;;31.70;26.63;;;;;;;;;;5074935;28;20054;-70
2024/01/05 00:10:16;;;;;;;35.50;28.33;;;;;;;;;;5088130;28;20405;-68
2024/01/05 00:12:41;;;;;;;41.08;31.63;;;;;;;;;;5073629;28;20396;-65
2024/01/05 00:15:07;;;;;;;41.63;32.10;;;;;;;;;;5079519;28;20062;-70
2024/01/05 00:17:33;;;;;;;34.50;27.48;;;;;;;;;;5062003;28;20106;-71
2024/01/05 00:19:58;;;;;;;25.70;22.10;;;;;;;;;;5085945;28;20111;-76
2024/01/05 00:22:23;;;;;;;23.40;19.23;;;;;;;;;;5087491;28;20403;-67
2024/01/05 00:24:49;;;;;;;26.08;21.40;;;;;;;;;;5087730;28;20028;-63
2024/01/05 00:27:16;;;;;;;25.85;20.83;;;;;;;;;;5083670;28;20019;-63
2024/01/05 00:29:41;;;;;;;25.42;22.10;;;;;;;;;;5073496;28;20039;-64
2024/01/05 00:32:06;;;;;;;26.05;21.45;;;;;;;;;;5097936;28;20040;-69
2024/01/05 00:34:32;;;;;;;29.30;22.10;;;;;;;;;;5098537;28;20147;-67
2024/01/05 00:36:57;;;;;;;31.33;25.40;;;;;;;;;;5077852;28;20072;-74
2024/01/05 00:39:23;;;;;;;32.83;27.45;;;;;;;;;;5097069;28;20103;-67
2024/01/05 00:41:48;;;;;;;37.05;30.23;;;;;;;;;;5074993;28;20070;-66
2024/01/05 00:44:14;;;;;;;37.75;29.08;;;;;;;;;;5073182;28;20031;-65
2024/01/05 00:46:39;;;;;;;33.38;26.67;;;;;;;;;;5083873;28;20024;-65
2024/01/05 00:49:04;;;;;;;30.13;23.10;;;;;;;;;;5074097;28;20347;-65
2024/01/05 00:51:30;;;;;;;31.80;24.90;;;;;;;;;;5076146;28;20032;-66
2024/01/05 00:53:55;;;;;;;30.63;24.77;;;;;;;;;;5080595;28;20035;-65
2024/01/05 00:56:21;;;;;;;24.08;18.88;;;;;;;;;;5095017;28;20036;-68
2024/01/05 00:58:46;;;;;;;21.75;18.00;;;;;;;;;;5095218;28;20320;-76
2024/01/05 01:01:12;;;;;;;22.02;18.38;;;;;;;;;;5059906;28;20031;-69
2024/01/05 01:03:37;;;;;;;23.17;20.02;;;;;;;;;;5096823;28;20058;-65
2024/01/05 01:06:03;;;;;;;24.98;21.88;;;;;;;;;;5096644;28;20111;-66
2024/01/05 01:08:28;;;;;;;29.25;21.65;;;;;;;;;;5100043;28;20047;-65
2024/01/05 01:10:54;;;;;;;26.92;23.20;;;;;;;;;;5096791;28;20110;-65
2024/01/05 01:13:19;;;;;;;29.73;25.95;;;;;;;;;;5084212;28;20112;-65
2024/01/05 01:15:45;;;;;;;27.02;23.65;;;;;;;;;;5088036;28;20071;-68
2024/01/05 01:18:10;;;;;;;26.98;22.27;;;;;;;;;;5097796;28;20068;-64
2024/01/05 01:20:35;;;;;;;27.75;23.02;;;;;;;;;;5096721;28;20034;-75
2024/01/05 01:23:01;;;;;;;31.92;26.65;;;;;;;;;;5091588;28;20376;-67
2024/01/05 01:25:26;;;;;;;39.28;31.95;;;;;;;;;;5076693;28;20020;-66
2024/01/05 01:27:51;;;;;;;36.47;29.02;;;;;;;;;;5088400;28;20024;-66
2024/01/05 01:30:17;;;;;;;30.00;25.30;;;;;;;;;;5087046;28;20019;-67
2024/01/05 01:32:42;;;;;;;55.08;44.80;;;;;;;;;;5098705;28;20089;-65
2024/01/05 01:35:07;;;;;;;33.72;27.73;;;;;;;;;;5087331;28;20098;-66
2024/01/05 01:37:33;;;;;;;36.90;29.83;;;;;;;;;;5084537;28;20036;-64
2024/01/05 01:39:58;;;;;;;50.42;39.28;;;;;;;;;;5100339;28;20019;-73
2024/01/05 01:42:24;;;;;;;32.10;26.42;;;;;;;;;;5101848;28;20039;-67
2024/01/05 01:44:50;;;;;;;29.30;24.83;;;;;;;;;;5100193;28;20031;-73
2024/01/05 01:47:16;;;;;;;31.20;26.48;;;;;;;;;;5080841;28;20389;-66
2024/01/05 01:49:42;;;;;;;29.17;23.75;;;;;;;;;;5081830;28;20088;-67
2024/01/05 01:52:07;;;;;;;29.55;23.90;;;;;;;;;;5092017;28;20054;-64
2024/01/05 01:54:33;;;;;;;30.25;23.13;;;;;;;;;;5088534;28;20085;-64
2024/01/05 01:56:59;;;;;;;16.92;15.13;;;;;;;;;;5100367;28;20027;-67
2024/01/05 01:59:25;;;;;;;16.58;13.45;;;;;;;;;;5094047;28;20113;-66
2024/01/05 02:01:50;;;;;;;22.08;15.35;;;;;;;;;;5083943;28;20027;-64
2024/01/05 02:04:17;;;;;;;21.95;17.23;;;;;;;;;;5098504;28;20036;-65
2024/01/05 02:06:46;;;;;;;17.42;13.65;;;;;;;;;;5074464;28;20433;-64
2024/01/05 02:09:12;;;;;;;15.85;11.65;;;;;;;;;;5097024;28;20058;-66
2024/01/05 02:11:37;;;;;;;21.10;16.23;;;;;;;;;;5075615;28;20522;-67
2024/01/05 02:14:03;;;;;;;17.23;14.48;;;;;;;;;;5083000;28;20202;-65
2024/01/05 02:16:28;;;;;;;16.88;14.90;;;;;;;;;;5100907;28;20077;-75
2024/01/05 02:18:54;;;;;;;24.40;18.23;;;;;;;;;;5097045;28;20186;-71
2024/01/05 02:21:22;;;;;;;24.95;18.77;;;;;;;;;;5088469;28;20015;-69
2024/01/05 02:23:47;;;;;;;25.35;19.67;;;;;;;;;;5102438;28;20023;-65
2024/01/05 02:26:13;;;;;;;23.83;18.98;;;;;;;;;;5101898;28;20032;-65
2024/01/05 02:28:38;;;;;;;24.58;18.55;;;;;;;;;;5082163;28;20059;-74
2024/01/05 02:31:04;;;;;;;20.42;16.40;;;;;;;;;;5091993;28;20084;-66
2024/01/05 02:33:29;;;;;;;19.50;15.07;;;;;;;;;;5085530;28;20023;-67
2024/01/05 02:35:55;;;;;;;54.00;45.08;;;;;;;;;;5097596;28;20016;-69
2024/01/05 02:38:20;;;;;;;85.75;74.80;;;;;;;;;;5083524;28;20383;-64
2024/01/05 02:40:45;;;;;;;67.00;56.30;;;;;;;;;;5086495;28;20027;-65
2024/01/05 02:43:11;;;;;;;41.03;34.50;;;;;;;;;;5073975;28;20036;-65
2024/01/05 02:45:36;;;;;;;56.17;45.90;;;;;;;;;;5089787;28;20042;-68
2024/01/05 02:48:02;;;;;;;25.40;20.67;;;;;;;;;;5079830;28;20798;-65
2024/01/05 02:50:27;;;;;;;25.90;21.48;;;;;;;;;;5095596;28;20114;-65
2024/01/05 02:52:52;;;;;;;62.38;49.13;;;;;;;;;;5098850;28;20307;-72
2024/01/05 02:55:18;;;;;;;90.90;60.10;;;;;;;;;;5097602;28;20028;-68
2024/01/05 02:57:43;;;;;;;84.70;56.60;;;;;;;;;;5096441;28;20059;-69
2024/01/05 03:00:08;;;;;;;54.30;39.13;;;;;;;;;;5093664;28;20497;-72
2024/01/05 03:02:34;;;;;;;50.30;36.83;;;;;;;;;;5098475;28;20057;-67
2024/01/05 03:04:59;;;;;;;42.08;32.45;;;;;;;;;;5082685;28;20023;-65
2024/01/05 03:07:25;;;;;;;47.28;37.22;;;;;;;;;;5096573;28;20479;-64
2024/01/05 03:09:50;;;;;;;30.48;25.13;;;;;;;;;;5080236;28;20450;-72
2024/01/05 03:12:16;;;;;;;40.88;31.05;;;;;;;;;;5083080;28;20036;-67
2024/01/05 03:14:41;;;;;;;39.80;30.25;;;;;;;;;;5078530;28;20505;-64
2024/01/05 03:17:07;;;;;;;57.13;44.28;;;;;;;;;;5100473;28;20024;-66
2024/01/05 03:19:32;;;;;;;48.38;38.42;;;;;;;;;;5098739;28;20135;-77
2024/01/05 03:21:58;;;;;;;40.03;31.67;;;;;;;;;;5098303;28;20055;-71
2024/01/05 03:24:24;;;;;;;42.60;30.92;;;;;;;;;;5082592;28;20054;-77
2024/01/05 03:26:49;;;;;;;48.95;35.20;;;;;;;;;;5093988;28;20047;-66
2024/01/05 03:29:15;;;;;;;37.40;28.85;;;;;;;;;;5097146;28;20031;-65
2024/01/05 03:31:43;;;;;;;25.08;20.67;;;;;;;;;;5099592;28;20542;-66
2024/01/05 03:34:08;;;;;;;21.65;16.65;;;;;;;;;;5098082;28;20023;-74
2024/01/05 03:36:34;;;;;;;11.32;9.68;;;;;;;;;;5099980;28;20088;-68
2024/01/05 03:38:59;;;;;;;9.38;8.23;;;;;;;;;;5094882;28;20457;-65
2024/01/05 03:41:25;;;;;;;13.60;11.65;;;;;;;;;;5097194;28;20023;-67
2024/01/05 03:43:50;;;;;;;19.88;15.88;;;;;;;;;;5097238;28;20351;-65
2024/01/05 03:46:15;;;;;;;14.32;12.30;;;;;;;;;;5100200;28;20020;-66
2024/01/05 03:48:41;;;;;;;28.55;21.40;;;;;;;;;;5077819;28;20062;-65
2024/01/05 03:51:06;;;;;;;25.88;21.83;;;;;;;;;;5096892;28;20446;-63
2024/01/05 03:53:31;;;;;;;22.27;18.05;;;;;;;;;;5096891;28;20387;-72
2024/01/05 03:56:00;;;;;;;25.42;21.58;;;;;;;;;;5096208;28;20332;-67
2024/01/05 03:58:27;;;;;;;71.90;56.43;;;;;;;;;;5100251;28;20028;-65
2024/01/05 04:00:52;;;;;;;77.05;61.95;;;;;;;;;;5098015;28;20019;-69
2024/01/05 04:03:18;;;;;;;47.22;39.63;;;;;;;;;;5078415;28;20028;-65
2024/01/05 04:05:43;;;;;;;26.40;22.02;;;;;;;;;;5096350;28;20035;-68
2024/01/05 04:08:09;;;;;;;15.85;12.65;;;;;;;;;;5076962;28;20431;-67
2024/01/05 04:10:35;;;;;;;12.10;10.80;;;;;;;;;;5097542;28;20028;-66
2024/01/05 04:13:00;;;;;;;13.27;10.02;;;;;;;;;;5100230;28;20342;-64
2024/01/05 04:15:26;;;;;;;15.30;11.02;;;;;;;;;;5097497;28;20030;-70
2024/01/05 04:17:51;;;;;;;13.35;11.60;;;;;;;;;;5089085;28;20119;-77
2024/01/05 04:20:16;;;;;;;18.40;14.95;;;;;;;;;;5084138;28;20036;-71
2024/01/05 04:22:42;;;;;;;37.63;31.00;;;;;;;;;;5089218;28;20035;-76
2024/01/05 04:25:07;;;;;;;43.22;33.00;;;;;;;;;;5082435;28;20055;-76
2024/01/05 04:27:33;;;;;;;44.25;37.80;;;;;;;;;;5097103;28;20034;-67
2024/01/05 04:29:58;;;;;;;28.15;23.40;;;;;;;;;;5097420;28;20027;-64
2024/01/05 04:32:23;;;;;;;21.65;17.88;;;;;;;;;;5095972;28;20027;-63
2024/01/05 04:34:49;;;;;;;29.02;20.98;;;;;;;;;;5096041;28;20032;-68
2024/01/05 04:37:14;;;;;;;33.10;28.48;;;;;;;;;;5063378;28;20027;-67
2024/01/05 04:39:40;;;;;;;36.33;29.30;;;;;;;;;;5077738;28;20110;-65
2024/01/05 04:42:05;;;;;;;33.78;28.95;;;;;;;;;;5077370;28;20032;-80
2024/01/05 04:44:30;;;;;;;43.53;33.75;;;;;;;;;;5077443;28;20047;-69
2024/01/05 04:46:56;;;;;;;53.72;43.67;;;;;;;;;;5094217;28;20032;-66
2024/01/05 04:49:21;;;;;;;56.13;43.22;;;;;;;;;;5063747;28;20429;-77
2024/01/05 04:51:46;;;;;;;32.47;26.48;;;;;;;;;;5074714;28;20421;-67
2024/01/05 04:54:12;;;;;;;30.88;22.02;;;;;;;;;;5072850;28;20051;-65
2024/01/05 04:56:37;;;;;;;148.98;102.05;;;;;;;;;;5075801;28;20028;-72
2024/01/05 04:59:02;;;;;;;140.93;110.22;;;;;;;;;;5074289;28;20066;-66
2024/01/05 05:01:28;;;;;;;102.53;81.75;;;;;;;;;;5074558;28;20027;-64
2024/01/05 05:03:53;;;;;;;87.97;73.53;;;;;;;;;;5073056;28;20077;-69
2024/01/05 05:06:18;;;;;;;65.45;52.75;;;;;;;;;;5072715;28;20451;-77
2024/01/05 05:08:44;;;;;;;61.80;47.25;;;;;;;;;;5072424;28;20445;-70
2024/01/05 05:11:09;;;;;;;30.40;24.52;;;;;;;;;;5072528;28;20043;-76
2024/01/05 05:13:34;;;;;;;27.95;23.73;;;;;;;;;;5057365;28;20032;-67
2024/01/05 05:16:01;;;;;;;33.17;23.10;;;;;;;;;;5063045;28;20027;-65
2024/01/05 05:18:26;;;;;;;38.80;22.65;;;;;;;;;;5094907;28;20023;-64
2024/01/05 05:20:51;;;;;;;37.60;20.10;;;;;;;;;;5090649;28;20038;-64
2024/01/05 05:23:17;;;;;;;50.72;32.20;;;;;;;;;;5088850;27;20024;-66
2024/01/05 05:25:42;;;;;;;286.30;233.50;;;;;;;;;;5092740;28;20138;-64
2024/01/05 05:28:07;;;;;;;353.92;286.13;;;;;;;;;;5100777;28;20098;-65
2024/01/05 05:30:33;;;;;;;97.07;74.70;;;;;;;;;;5083639;28;20059;-66
2024/01/05 05:32:58;;;;;;;71.28;42.85;;;;;;;;;;5098166;28;20438;-77
2024/01/05 05:35:23;;;;;;;149.45;102.88;;;;;;;;;;5102132;28;20073;-71
2024/01/05 05:37:49;;;;;;;126.78;81.85;;;;;;;;;;5064449;28;20039;-67
2024/01/05 05:40:14;;;;;;;672.75;562.78;;;;;;;;;;5077113;28;20028;-73
2024/01/05 05:42:39;;;;;;;324.40;277.45;;;;;;;;;;5074033;28;20039;-69
2024/01/05 05:45:05;;;;;;;174.52;144.77;;;;;;;;;;5080950;28;20034;-66
2024/01/05 05:47:30;;;;;;;80.10;61.88;;;;;;;;;;5080888;28;20054;-63
2024/01/05 05:49:56;;;;;;;62.60;46.47;;;;;;;;;;5074428;28;20027;-68
2024/01/05 05:52:21;;;;;;;56.72;49.25;;;;;;;;;;5081428;28;20047;-66
2024/01/05 05:54:46;;;;;;;650.17;577.63;;;;;;;;;;5085333;28;20119;-65
2024/01/05 05:57:12;;;;;;;192.40;153.05;;;;;;;;;;5083047;28;20050;-66
2024/01/05 05:59:37;;;;;;;156.32;121.68;;;;;;;;;;5084716;28;20024;-73
2024/01/05 06:02:03;;;;;;;256.42;205.18;;;;;;;;;;5084780;28;20456;-66
2024/01/05 06:04:28;;;;;;;242.90;198.85;;;;;;;;;;5066752;28;20406;-77
2024/01/05 06:06:54;;;;;;;252.35;220.80;;;;;;;;;;5084137;27;20039;-68
2024/01/05 06:09:19;;;;;;;146.63;130.65;;;;;;;;;;5065783;28;20082;-66
2024/01/05 06:11:44;;;;;;;100.82;78.28;;;;;;;;;;5083360;28;20488;-65
2024/01/05 06:14:10;;;;;;;134.38;112.47;;;;;;;;;;5081705;28;20047;-67
2024/01/05 06:16:35;;;;;;;485.73;379.00;;;;;;;;;;5083439;28;20041;-67
2024/01/05 06:19:01;;;;;;;133.10;90.10;;;;;;;;;;5069517;28;20023;-65
2024/01/05 06:21:26;;;;;;;136.68;107.80;;;;;;;;;;5083222;28;20035;-75
2024/01/05 06:23:51;;;;;;;144.80;115.25;;;;;;;;;;5103541;28;20035;-68
2024/01/05 06:26:17;;;;;;;79.47;52.35;;;;;;;;;;5099847;28;20023;-75
2024/01/05 06:28:42;;;;;;;336.55;247.40;;;;;;;;;;5099489;28;20560;-69
2024/01/05 06:31:08;;;;;;;159.38;119.70;;;;;;;;;;5098362;28;20351;-67
2024/01/05 06:33:34;;;;;;;220.32;157.48;;;;;;;;;;5085751;28;20024;-64
2024/01/05 06:35:59;;;;;;;126.80;85.72;;;;;;;;;;5078105;28;20477;-70
2024/01/05 06:38:25;;;;;;;829.50;654.83;;;;;;;;;;5075424;28;20427;-64
2024/01/05 06:40:50;;;;;;;250.75;184.05;;;;;;;;;;5074716;28;20136;-73
2024/01/05 06:43:15;;;;;;;204.27;147.30;;;;;;;;;;5101785;28;20048;-68
2024/01/05 06:45:41;;;;;;;328.50;245.75;;;;;;;;;;5099984;28;20019;-68
2024/01/05 06:48:06;;;;;;;192.18;144.00;;;;;;;;;;5098570;28;20645;-73
2024/01/05 06:50:32;;;;;;;97.32;78.70;;;;;;;;;;5087721;28;20062;-68
2024/01/05 06:52:57;;;;;;;219.23;165.27;;;;;;;;;;5075999;28;20023;-66
2024/01/05 06:55:22;;;;;;;149.73;113.18;;;;;;;;;;5074676;28;20024;-66
2024/01/05 06:57:48;;;;;;;118.10;88.45;;;;;;;;;;5055660;28;20530;-66
2024/01/05 07:00:13;;;;;;;52.08;37.47;;;;;;;;;;5097728;28;20494;-70
2024/01/05 07:02:40;;;;;;;174.10;123.63;;;;;;;;;;5098325;28;20032;-67
2024/01/05 07:05:05;;;;;;;207.75;127.18;;;;;;;;;;5099977;28;20098;-71
2024/01/05 07:07:31;;;;;;;186.82;128.95;;;;;;;;;;5098924;28;20284;-67
2024/01/05 07:09:56;;;;;;;127.40;96.13;;;;;;;;;;5098417;28;20585;-76
2024/01/05 07:12:22;;;;;;;116.35;76.25;;;;;;;;;;5095260;28;20053;-67
2024/01/05 07:14:47;;;;;;;78.20;53.58;;;;;;;;;;5097684;28;20052;-68
2024/01/05 07:17:13;;;;;;;149.45;99.50;;;;;;;;;;5098332;28;20024;-65
2024/01/05 07:19:39;;;;;;;88.80;63.08;;;;;;;;;;5095270;28;20113;-65
2024/01/05 07:22:04;;;;;;;239.20;167.13;;;;;;;;;;5099328;28;20376;-70
2024/01/05 07:24:30;;;;;;;117.65;83.10;;;;;;;;;;5096761;28;20032;-65
2024/01/05 07:26:55;;;;;;;72.57;54.55;;;;;;;;;;5096564;28;20027;-71
2024/01/05 07:29:20;;;;;;;157.88;110.78;;;;;;;;;;5097479;28;20066;-68
2024/01/05 07:31:46;;;;;;;96.75;73.00;;;;;;;;;;5097996;28;20067;-66
2024/01/05 07:34:11;;;;;;;47.67;41.88;;;;;;;;;;5097426;28;20388;-67
2024/01/05 07:36:43;;;;;;;51.92;44.50;;;;;;;;;;5097769;28;20033;-73
2024/01/05 07:39:12;;;;;;;37.97;32.72;;;;;;;;;;5098536;28;20051;-69
2024/01/05 07:41:38;;;;;;;43.75;34.55;;;;;;;;;;5097960;28;20050;-70
2024/01/05 07:44:03;;;;;;;52.45;46.97;;;;;;;;;;5097997;28;20027;-70
2024/01/05 07:46:30;;;;;;;70.00;63.00;;;;;;;;;;5098034;28;20080;-67
2024/01/05 07:48:55;;;;;;;45.97;40.05;;;;;;;;;;5080704;28;20027;-72
2024/01/05 07:51:21;;;;;;;67.25;58.58;;;;;;;;;;5075318;28;20036;-69
2024/01/05 07:53:48;;;;;;;46.17;41.17;;;;;;;;;;5091930;28;20042;-74
2024/01/05 07:56:13;;;;;;;31.33;28.00;;;;;;;;;;5099001;28;20016;-69
2024/01/05 07:58:39;;;;;;;50.17;43.85;;;;;;;;;;5097776;28;20027;-70
2024/01/05 08:01:04;;;;;;;38.30;33.92;;;;;;;;;;5098515;28;20518;-71
2024/01/05 08:03:30;;;;;;;59.88;52.83;;;;;;;;;;5096364;28;20038;-77
2024/01/05 08:05:55;;;;;;;66.45;58.30;;;;;;;;;;5083428;28;20023;-73
2024/01/05 08:08:20;;;;;;;43.80;39.05;;;;;;;;;;5078376;28;20096;-69
2024/01/05 08:10:46;;;;;;;37.03;32.97;;;;;;;;;;5082349;28;20036;-77
2024/01/05 08:13:11;;;;;;;30.40;27.10;;;;;;;;;;5080477;28;20020;-69
2024/01/05 08:15:36;;;;;;;46.22;41.10;;;;;;;;;;5073667;28;20020;-67
2024/01/05 08:18:03;;;;;;;63.78;50.85;;;;;;;;;;5098115;28;20084;-68
2024/01/05 08:20:28;;;;;;;85.95;63.53;;;;;;;;;;5094806;28;20090;-68
2024/01/05 08:22:54;;;;;;;37.20;28.15;;;;;;;;;;5092628;28;20346;-77
2024/01/05 08:25:19;;;;;;;44.13;38.90;;;;;;;;;;5087749;28;21526;-71
2024/01/05 08:27:44;;;;;;;56.20;46.30;;;;;;;;;;5094739;28;20316;-72
2024/01/05 08:30:10;;;;;;;32.88;28.67;;;;;;;;;;5097196;28;20398;-76
2024/01/05 08:32:37;;;;;;;43.33;38.42;;;;;;;;;;5080960;28;20051;-72
2024/01/05 08:35:03;;;;;;;37.95;32.63;;;;;;;;;;5079398;28;20088;-75
2024/01/05 08:37:28;;;;;;;37.92;33.47;;;;;;;;;;5077985;28;20121;-68
2024/01/05 08:39:53;;;;;;;28.25;25.08;;;;;;;;;;5091655;28;20036;-71
2024/01/05 08:42:18;;;;;;;35.05;29.60;;;;;;;;;;5080676;28;20024;-73
2024/01/05 08:44:44;;;;;;;24.35;21.75;;;;;;;;;;5078756;28;20038;-77
2024/01/05 08:47:09;;;;;;;30.95;27.75;;;;;;;;;;5095208;28;20802;-73
2024/01/05 08:49:36;;;;;;;68.47;60.47;;;;;;;;;;5093391;28;20390;-69
2024/01/05 08:52:01;;;;;;;40.33;36.13;;;;;;;;;;5082653;28;20092;-68
2024/01/05 08:54:27;;;;;;;29.60;26.13;;;;;;;;;;5102245;28;20040;-69
2024/01/05 08:56:52;;;;;;;15.07;13.45;;;;;;;;;;5097566;28;20059;-68
2024/01/05 08:59:17;;;;;;;7.28;4.55;;;;;;;;;;5083980;28;20030;-71
2024/01/05 09:01:43;;;;;;;27.25;24.58;;;;;;;;;;5062999;28;20027;-69
2024/01/05 09:04:10;;;;;;;23.67;18.13;;;;;;;;;;5080820;28;20040;-74
2024/01/05 09:06:38;;;;;;;81.50;73.60;;;;;;;;;;5089221;28;20036;-72
2024/01/05 09:09:04;;;;;;;25.60;22.80;;;;;;;;;;5088800;28;20473;-70
2024/01/05 09:11:29;;;;;;;49.65;43.05;;;;;;;;;;5080817;28;20028;-77
2024/01/05 09:13:54;;;;;;;28.65;25.60;;;;;;;;;;5083850;28;20115;-71
2024/01/05 09:16:20;;;;;;;16.80;13.07;;;;;;;;;;5085460;28;20058;-71
2024/01/05 09:18:45;;;;;;;17.20;14.10;;;;;;;;;;5083054;28;20024;-69
2024/01/05 09:21:12;;;;;;;15.50;13.02;;;;;;;;;;5089527;28;20077;-70
2024/01/05 09:23:38;;;;;;;30.40;20.77;;;;;;;;;;5080713;28;20123;-69
2024/01/05 09:26:04;;;;;;;20.65;16.00;;;;;;;;;;5081193;28;20023;-76
2024/01/05 09:28:29;;;;;;;19.65;16.73;;;;;;;;;;5083200;28;20111;-73
2024/01/05 09:30:55;;;;;;;16.52;13.05;;;;;;;;;;5082518;28;20080;-72
2024/01/05 09:33:20;;;;;;;16.77;12.30;;;;;;;;;;5102713;28;20024;-71
2024/01/05 09:35:45;;;;;;;21.88;18.48;;;;;;;;;;5098503;28;20023;-72
2024/01/05 09:38:11;;;;;;;16.50;13.68;;;;;;;;;;5098518;28;20454;-70
2024/01/05 09:40:37;;;;;;;19.92;15.68;;;;;;;;;;5082582;28;21261;-72
2024/01/05 09:43:03;;;;;;;13.50;10.90;;;;;;;;;;5089315;28;20052;-75
2024/01/05 09:45:28;;;;;;;19.80;13.35;;;;;;;;;;5095180;28;20509;-74
2024/01/05 09:47:57;;;;;;;7.82;5.07;;;;;;;;;;5098347;28;20015;-75
2024/01/05 09:50:23;;;;;;;12.35;8.63;;;;;;;;;;5102754;28;20015;-76
2024/01/05 09:52:48;;;;;;;13.50;6.85;;;;;;;;;;5100897;28;20050;-75
2024/01/05 09:55:14;;;;;;;7.82;4.20;;;;;;;;;;5101695;28;20072;-73
2024/01/05 09:57:42;;;;;;;15.80;11.90;;;;;;;;;;5097087;28;20042;-74
2024/01/05 10:00:10;;;;;;;17.20;11.30;;;;;;;;;;5078043;28;20024;-75
2024/01/05 10:02:39;;;;;;;17.08;12.70;;;;;;;;;;5079288;28;20085;-72
2024/01/05 10:05:05;;;;;;;21.40;15.67;;;;;;;;;;5077918;28;20059;-74
2024/01/05 10:07:30;;;;;;;17.95;14.20;;;;;;;;;;5085154;28;20460;-75
2024/01/05 10:09:57;;;;;;;15.13;11.32;;;;;;;;;;5100928;28;20081;-74
2024/01/05 10:12:23;;;;;;;10.77;8.77;;;;;;;;;;5089478;28;20118;-74
2024/01/05 10:14:49;;;;;;;18.13;14.35;;;;;;;;;;5102440;28;20024;-75
2024/01/05 10:17:18;;;;;;;9.30;8.23;;;;;;;;;;5063791;28;20509;-73
2024/01/05 10:19:43;;;;;;;12.63;10.05;;;;;;;;;;5061094;28;20459;-76
2024/01/05 10:22:10;;;;;;;16.35;13.13;;;;;;;;;;5064936;28;20035;-75
2024/01/05 10:24:35;;;;;;;33.17;23.95;;;;;;;;;;5061012;28;20340;-72
2024/01/05 10:27:07;;;;;;;12.18;8.80;;;;;;;;;;5062617;28;20027;-74
2024/01/05 10:29:38;;;;;;;14.40;10.25;;;;;;;;;;5078462;28;20024;-78
2024/01/05 10:32:14;;;;;;;24.35;18.73;;;;;;;;;;5063801;28;20195;-70
2024/01/05 10:34:49;;;;;;;16.00;13.55;;;;;;;;;;5075988;28;20088;-72
2024/01/05 10:37:16;;;;;;;13.43;8.13;;;;;;;;;;5078078;28;20506;-72
2024/01/05 10:39:45;;;;;;;8.52;6.38;;;;;;;;;;5061233;28;20031;-74
2024/01/05 10:42:27;;;;;;;10.75;8.18;;;;;;;;;;5061907;28;20465;-73
2024/01/05 10:44:53;;;;;;;11.30;10.00;;;;;;;;;;5059791;28;20027;-71
2024/01/05 10:47:29;;;;;;;10.95;9.75;;;;;;;;;;5082015;28;20103;-72
2024/01/05 10:49:55;;;;;;;10.07;9.07;;;;;;;;;;5079349;28;20030;-77
2024/01/05 10:52:22;;;;;;;9.88;8.02;;;;;;;;;;5056391;28;20035;-73
2024/01/05 10:54:48;;;;;;;22.35;19.45;;;;;;;;;;5059297;28;20031;-76
2024/01/05 10:57:15;;;;;;;10.82;6.25;;;;;;;;;;5078825;28;20067;-71
2024/01/05 10:59:44;;;;;;;5.90;3.22;;;;;;;;;;5078302;28;20033;-72
2024/01/05 11:02:17;;;;;;;12.55;9.32;;;;;;;;;;5065068;28;20147;-73
2024/01/05 11:04:45;;;;;;;8.10;4.53;;;;;;;;;;5070024;28;20043;-73
2024/01/05 11:07:12;;;;;;;9.25;4.72;;;;;;;;;;5060816;28;20090;-76
2024/01/05 11:09:56;;;;;;;10.25;7.13;;;;;;;;;;5059175;28;20040;-73
2024/01/05 11:12:31;;;;;;;12.93;10.32;;;;;;;;;;5060771;28;20360;-73
2024/01/05 11:15:03;;;;;;;7.53;5.35;;;;;;;;;;5068023;28;20098;-69
2024/01/05 11:17:40;;;;;;;22.08;18.70;;;;;;;;;;5079960;28;20166;-72
2024/01/05 11:20:18;;;;;;;9.82;7.40;;;;;;;;;;5058003;28;20135;-73
2024/01/05 11:22:46;;;;;;;23.92;21.00;;;;;;;;;;5064515;28;20093;-72
2024/01/05 11:25:12;;;;;;;8.35;7.53;;;;;;;;;;5058904;28;20036;-75
2024/01/05 11:27:38;;;;;;;48.67;43.90;;;;;;;;;;5054348;28;20449;-73
2024/01/05 11:30:04;;;;;;;35.05;32.00;;;;;;;;;;5073423;28;20051;-75
2024/01/05 11:32:44;;;;;;;14.02;12.52;;;;;;;;;;5077850;28;20095;-74
2024/01/05 11:35:16;;;;;;;17.13;15.30;;;;;;;;;;5047181;28;20038;-76
2024/01/05 11:37:42;;;;;;;10.15;8.68;;;;;;;;;;5055621;28;20016;-76
2024/01/05 11:40:25;;;;;;;7.78;5.40;;;;;;;;;;5058266;28;20021;-76
2024/01/05 11:42:50;;;;;;;11.75;5.38;;;;;;;;;;5057458;28;20044;-74
2024/01/05 11:45:36;;;;;;;11.32;6.40;;;;;;;;;;5058709;28;20053;-75
2024/01/05 11:48:01;;;;;;;7.13;3.88;;;;;;;;;;5053627;28;20048;-73
2024/01/05 11:50:26;;;;;;;9.85;6.25;;;;;;;;;;5056531;28;20052;-76
2024/01/05 11:53:11;;;;;;;11.88;6.60;;;;;;;;;;5056008;28;20040;-76
2024/01/05 11:55:40;;;;;;;7.63;4.65;;;;;;;;;;5056128;28;20023;-75
2024/01/05 11:58:06;;;;;;;12.57;7.55;;;;;;;;;;5055365;28;20032;-77
2024/01/05 12:00:31;;;;;;;12.35;8.00;;;;;;;;;;5054482;28;20067;-72
2024/01/05 12:03:03;;;;;;;10.10;9.07;;;;;;;;;;5057288;28;20056;-73
2024/01/05 12:05:28;;;;;;;6.38;4.85;;;;;;;;;;5069541;28;20027;-77
2024/01/05 12:07:57;;;;;;;5.75;4.85;;;;;;;;;;5078761;28;20044;-74
2024/01/05 12:10:27;;;;;;;8.52;7.63;;;;;;;;;;5076704;28;20039;-75
2024/01/05 12:12:52;;;;;;;;;;;;;;;;;;5079205;28;20039;-76
2024/01/05 12:15:18;;;;;;;11.67;9.00;;;;;;;;;;5077853;28;20096;-75
2024/01/05 12:17:43;;;;;;;9.40;5.70;;;;;;;;;;5079342;28;20384;-73
2024/01/05 12:20:12;;;;;;;5.20;4.18;;;;;;;;;;5078116;28;20020;-73
2024/01/05 12:22:37;;;;;;;4.13;2.43;;;;;;;;;;5077274;28;20084;-74
2024/01/05 12:25:04;;;;;;;6.03;4.95;;;;;;;;;;5080250;28;20027;-75
2024/01/05 12:27:38;;;;;;;6.78;3.38;;;;;;;;;;5078605;28;20028;-73
2024/01/05 12:30:05;;;;;;;3.45;2.25;;;;;;;;;;5079752;28;20100;-73
2024/01/05 12:32:33;;;;;;;6.45;5.85;;;;;;;;;;5081826;28;20125;-74
2024/01/05 12:34:59;;;;;;;6.07;3.28;;;;;;;;;;5079230;28;20027;-78
2024/01/05 12:37:24;;;;;;;8.85;5.82;;;;;;;;;;5078669;28;20165;-76
2024/01/05 12:39:49;;;;;;;215.50;169.98;;;;;;;;;;5079245;28;20028;-75
2024/01/05 12:42:15;;;;;;;40.58;32.80;;;;;;;;;;5076850;28;20418;-74
2024/01/05 12:44:42;;;;;;;27.98;20.00;;;;;;;;;;5077139;28;20028;-71
2024/01/05 12:47:07;;;;;;;37.33;29.63;;;;;;;;;;5078558;28;20028;-78
2024/01/05 12:49:34;;;;;;;26.58;21.33;;;;;;;;;;5076911;28;20112;-78
2024/01/05 12:52:00;;;;;;;19.67;16.60;;;;;;;;;;5077004;28;20032;-71
2024/01/05 12:54:25;;;;;;;21.08;16.10;;;;;;;;;;5076851;28;20022;-72
2024/01/05 12:56:51;;;;;;;15.02;11.73;;;;;;;;;;5077045;28;20020;-72
2024/01/05 12:59:20;;;;;;;18.05;12.13;;;;;;;;;;5078050;28;20101;-71
2024/01/05 13:01:45;;;;;;;23.67;18.52;;;;;;;;;;5078839;28;20028;-71
2024/01/05 13:04:11;;;;;;;23.30;18.48;;;;;;;;;;5077309;28;20439;-73
2024/01/05 13:06:37;;;;;;;24.92;20.33;;;;;;;;;;5077384;28;20041;-72
2024/01/05 13:09:03;;;;;;;29.17;22.08;;;;;;;;;;5079418;28;20083;-73
2024/01/05 13:11:28;;;;;;;23.42;19.02;;;;;;;;;;5078254;28;20137;-77
2024/01/05 13:13:53;;;;;;;23.10;18.83;;;;;;;;;;5060853;28;20034;-72
2024/01/05 13:16:19;;;;;;;30.63;23.58;;;;;;;;;;5078754;28;20028;-72
2024/01/05 13:18:45;;;;;;;147.48;102.95;;;;;;;;;;5078906;28;20020;-72
2024/01/05 13:21:10;;;;;;;45.75;34.67;;;;;;;;;;5079255;28;20358;-73
2024/01/05 13:23:35;;;;;;;37.78;32.58;;;;;;;;;;5080010;28;20108;-71
2024/01/05 13:26:01;;;;;;;41.35;35.22;;;;;;;;;;5063619;28;20043;-72
2024/01/05 13:28:27;;;;;;;30.80;26.23;;;;;;;;;;5069808;28;20085;-72
2024/01/05 13:30:52;;;;;;;28.17;22.15;;;;;;;;;;5060602;28;20039;-76
2024/01/05 13:33:17;;;;;;;22.27;17.38;;;;;;;;;;5060275;28;20530;-75
2024/01/05 13:35:43;;;;;;;23.67;18.17;;;;;;;;;;5042411;28;20448;-71
2024/01/05 13:38:08;;;;;;;20.55;16.23;;;;;;;;;;5063055;28;20020;-74
2024/01/05 13:40:36;;;;;;;21.50;15.55;;;;;;;;;;5067189;28;20036;-72
2024/01/05 13:43:02;;;;;;;21.02;17.02;;;;;;;;;;5073634;28;20031;-75
2024/01/05 13:45:27;;;;;;;38.22;32.25;;;;;;;;;;5075338;28;20346;-75
2024/01/05 13:47:53;;;;;;;28.42;23.83;;;;;;;;;;5065476;28;20035;-73
2024/01/05 13:50:19;;;;;;;29.23;23.27;;;;;;;;;;5062567;28;21152;-73
2024/01/05 13:52:44;;;;;;;25.63;21.05;;;;;;;;;;5047367;28;20041;-74
2024/01/05 13:55:09;;;;;;;70.68;59.30;;;;;;;;;;5063411;28;20029;-72
2024/01/05 13:57:35;;;;;;;99.60;83.45;;;;;;;;;;5064320;28;20379;-72
2024/01/05 14:00:00;;;;;;;54.03;43.92;;;;;;;;;;5050041;28;20048;-72
2024/01/05 14:02:26;;;;;;;176.05;137.50;;;;;;;;;;5063767;28;20036;-73
2024/01/05 14:04:51;;;;;;;84.65;65.70;;;;;;;;;;5064909;28;20031;-72
2024/01/05 14:07:17;;;;;;;71.10;58.42;;;;;;;;;;5065969;28;20016;-75
2024/01/05 14:09:42;;;;;;;68.47;54.22;;;;;;;;;;5064009;28;20101;-75